createdAt,value
2022-10-12T00:00:27.492Z,8.81
2022-10-12T00:01:27.545Z,8.80
2022-10-12T00:02:27.486Z,8.86
2022-10-12T00:03:27.490Z,8.89
2022-10-12T00:04:27.487Z,8.91
2022-10-12T00:05:27.482Z,8.80
2022-10-12T00:06:27.481Z,8.84
2022-10-12T00:07:27.477Z,8.80
2022-10-12T00:08:27.478Z,8.83
2022-10-12T00:09:27.497Z,8.81
2022-10-12T00:10:27.475Z,8.87
2022-10-12T00:11:27.467Z,8.80
2022-10-12T00:12:27.469Z,8.86
2022-10-12T00:13:27.468Z,8.96
2022-10-12T00:14:27.464Z,8.89
2022-10-12T00:15:27.465Z,8.94
2022-10-12T00:16:27.461Z,8.94
2022-10-12T00:17:27.463Z,8.92
2022-10-12T00:18:27.459Z,8.84
2022-10-12T00:19:27.455Z,8.84
2022-10-12T00:20:27.457Z,8.83
2022-10-12T00:21:27.452Z,8.87
2022-10-12T00:22:27.452Z,8.81
2022-10-12T00:23:27.450Z,8.77
2022-10-12T00:24:27.446Z,8.80
2022-10-12T00:25:27.467Z,8.79
2022-10-12T00:26:27.441Z,8.71
2022-10-12T00:27:27.441Z,8.65
2022-10-12T00:28:27.530Z,8.63
2022-10-12T00:29:27.436Z,8.66
2022-10-12T00:30:27.436Z,8.73
2022-10-12T00:31:27.437Z,8.65
2022-10-12T00:32:27.435Z,8.68
2022-10-12T00:33:27.428Z,8.68
2022-10-12T00:34:27.435Z,8.65
2022-10-12T00:35:27.427Z,8.68
2022-10-12T00:36:27.424Z,8.68
2022-10-12T00:37:27.423Z,8.63
2022-10-12T00:38:27.421Z,8.65
2022-10-12T00:39:27.418Z,8.59
2022-10-12T00:40:27.417Z,8.63
2022-10-12T00:41:27.435Z,8.56
2022-10-12T00:42:27.417Z,8.65
2022-10-12T00:43:27.409Z,8.52
2022-10-12T00:44:27.406Z,8.59
2022-10-12T00:45:27.403Z,8.62
2022-10-12T00:46:27.405Z,8.52
2022-10-12T00:47:27.402Z,8.55
2022-10-12T00:48:27.407Z,8.62
2022-10-12T00:49:27.401Z,8.59
2022-10-12T00:50:27.399Z,8.63
2022-10-12T00:51:27.395Z,8.62
2022-10-12T00:52:27.400Z,8.63
2022-10-12T00:53:27.388Z,8.68
2022-10-12T00:54:27.388Z,8.65
2022-10-12T00:55:27.391Z,8.63
2022-10-12T00:56:27.392Z,8.65
2022-10-12T00:57:27.405Z,8.61
2022-10-12T00:58:27.382Z,8.56
2022-10-12T00:59:27.378Z,8.61
2022-10-12T01:00:27.388Z,8.55
2022-10-12T01:01:27.451Z,8.50
2022-10-12T01:02:27.372Z,8.47
2022-10-12T01:03:27.373Z,8.48
2022-10-12T01:04:27.369Z,8.41
2022-10-12T01:05:27.368Z,8.44
2022-10-12T01:06:27.368Z,8.44
2022-10-12T01:07:27.362Z,8.41
2022-10-12T01:08:27.362Z,8.44
2022-10-12T01:09:27.356Z,8.45
2022-10-12T01:10:27.355Z,8.43
2022-10-12T01:11:27.353Z,8.41
2022-10-12T01:12:27.354Z,8.34
2022-10-12T01:13:27.372Z,8.43
2022-10-12T01:14:27.351Z,8.36
2022-10-12T01:15:27.348Z,8.37
2022-10-12T01:16:27.347Z,8.34
2022-10-12T01:17:27.340Z,8.29
2022-10-12T01:18:27.342Z,8.28
2022-10-12T01:19:27.342Z,8.29
2022-10-12T01:20:27.336Z,8.33
2022-10-12T01:21:27.334Z,8.25
2022-10-12T01:22:27.331Z,8.25
2022-10-12T01:23:27.329Z,8.12
2022-10-12T01:24:27.325Z,8.20
2022-10-12T01:25:27.324Z,8.08
2022-10-12T01:26:27.327Z,8.08
2022-10-12T01:27:27.320Z,8.10
2022-10-12T01:28:27.381Z,8.15
2022-10-12T01:29:27.344Z,8.10
2022-10-12T01:30:27.317Z,8.11
2022-10-12T01:31:32.261Z,8.05
2022-10-12T01:32:27.312Z,8.11
2022-10-12T01:33:27.306Z,8.10
2022-10-12T01:34:27.305Z,8.12
2022-10-12T01:35:27.306Z,8.12
2022-10-12T01:36:27.303Z,8.20
2022-10-12T01:37:27.302Z,8.11
2022-10-12T01:38:27.302Z,8.11
2022-10-12T01:39:27.298Z,8.16
2022-10-12T01:40:27.292Z,8.10
2022-10-12T01:41:27.292Z,8.11
2022-10-12T01:42:27.290Z,8.16
2022-10-12T01:43:27.289Z,8.10
2022-10-12T01:44:27.289Z,8.07
2022-10-12T01:45:27.303Z,8.10
2022-10-12T01:46:27.280Z,8.10
2022-10-12T01:47:27.280Z,8.15
2022-10-12T01:48:27.277Z,8.11
2022-10-12T01:49:27.268Z,8.07
2022-10-12T01:50:27.271Z,8.12
2022-10-12T01:51:27.269Z,8.11
2022-10-12T01:52:27.267Z,8.08
2022-10-12T01:53:27.277Z,8.08
2022-10-12T01:54:27.263Z,8.05
2022-10-12T01:55:27.257Z,8.16
2022-10-12T01:56:27.259Z,8.04
2022-10-12T01:57:27.252Z,8.05
2022-10-12T01:58:27.260Z,8.01
2022-10-12T01:59:27.253Z,8.11
2022-10-12T02:00:27.251Z,8.10
2022-10-12T02:01:27.328Z,8.02
2022-10-12T02:02:27.253Z,8.02
2022-10-12T02:03:27.247Z,7.98
2022-10-12T02:04:27.241Z,8.05
2022-10-12T02:05:27.238Z,8.02
2022-10-12T02:06:27.236Z,8.11
2022-10-12T02:07:27.237Z,8.00
2022-10-12T02:08:27.231Z,8.01
2022-10-12T02:09:27.228Z,7.98
2022-10-12T02:10:27.233Z,8.01
2022-10-12T02:11:27.223Z,7.95
2022-10-12T02:12:27.222Z,7.95
2022-10-12T02:13:27.220Z,7.98
2022-10-12T02:14:27.217Z,7.97
2022-10-12T02:15:27.214Z,8.02
2022-10-12T02:16:27.216Z,7.95
2022-10-12T02:17:27.231Z,7.95
2022-10-12T02:18:27.211Z,7.93
2022-10-12T02:19:27.206Z,7.98
2022-10-12T02:20:27.207Z,7.93
2022-10-12T02:21:27.196Z,7.93
2022-10-12T02:22:27.201Z,7.90
2022-10-12T02:23:27.199Z,7.95
2022-10-12T02:24:27.197Z,7.92
2022-10-12T02:25:27.202Z,7.95
2022-10-12T02:26:27.192Z,7.90
2022-10-12T02:27:27.188Z,7.95
2022-10-12T02:28:27.218Z,7.97
2022-10-12T02:29:27.183Z,7.93
2022-10-12T02:30:27.181Z,7.97
2022-10-12T02:31:27.179Z,7.98
2022-10-12T02:32:27.176Z,7.92
2022-10-12T02:33:27.196Z,7.93
2022-10-12T02:34:27.172Z,7.77
2022-10-12T02:35:27.167Z,7.74
2022-10-12T02:36:27.168Z,7.75
2022-10-12T02:37:27.164Z,7.74
2022-10-12T02:38:27.165Z,7.68
2022-10-12T02:39:27.160Z,7.71
2022-10-12T02:40:27.160Z,7.67
2022-10-12T02:41:27.154Z,7.57
2022-10-12T02:42:27.153Z,7.55
2022-10-12T02:43:27.152Z,7.60
2022-10-12T02:44:27.151Z,7.61
2022-10-12T02:45:27.145Z,7.60
2022-10-12T02:46:27.143Z,7.64
2022-10-12T02:47:27.146Z,7.63
2022-10-12T02:48:27.143Z,7.57
2022-10-12T02:49:27.161Z,7.58
2022-10-12T02:50:27.139Z,7.61
2022-10-12T02:51:27.136Z,7.58
2022-10-12T02:52:27.129Z,7.50
2022-10-12T02:53:27.130Z,7.49
2022-10-12T02:54:27.124Z,7.50
2022-10-12T02:55:27.121Z,7.49
2022-10-12T02:56:27.128Z,7.48
2022-10-12T02:57:27.117Z,7.55
2022-10-12T02:58:27.122Z,7.50
2022-10-12T02:59:27.115Z,7.53
2022-10-12T03:00:27.108Z,7.50
2022-10-12T03:01:27.159Z,7.50
2022-10-12T03:02:27.110Z,7.45
2022-10-12T03:03:27.104Z,7.50
2022-10-12T03:04:27.102Z,7.46
2022-10-12T03:05:27.121Z,7.46
2022-10-12T03:06:27.096Z,7.45
2022-10-12T03:07:27.095Z,7.45
2022-10-12T03:08:27.098Z,7.43
2022-10-12T03:09:27.086Z,7.46
2022-10-12T03:10:27.091Z,7.42
2022-10-12T03:11:27.083Z,7.45
2022-10-12T03:12:27.082Z,7.43
2022-10-12T03:13:27.082Z,7.49
2022-10-12T03:14:27.079Z,7.46
2022-10-12T03:15:27.072Z,7.48
2022-10-12T03:16:27.076Z,7.43
2022-10-12T03:17:27.066Z,7.42
2022-10-12T03:18:27.070Z,7.39
2022-10-12T03:19:27.065Z,7.42
2022-10-12T03:20:27.059Z,7.43
2022-10-12T03:21:27.076Z,7.50
2022-10-12T03:22:27.054Z,7.43
2022-10-12T03:23:27.052Z,7.46
2022-10-12T03:24:27.049Z,7.37
2022-10-12T03:25:27.046Z,7.43
2022-10-12T03:26:27.045Z,7.42
2022-10-12T03:27:27.046Z,7.50
2022-10-12T03:28:27.098Z,7.39
2022-10-12T03:29:27.037Z,7.49
2022-10-12T03:30:27.045Z,7.37
2022-10-12T03:31:27.032Z,7.42
2022-10-12T03:32:27.031Z,7.32
2022-10-12T03:33:27.027Z,7.48
2022-10-12T03:34:27.031Z,7.35
2022-10-12T03:35:27.025Z,7.35
2022-10-12T03:36:27.020Z,7.37
2022-10-12T03:37:27.050Z,7.31
2022-10-12T03:38:27.023Z,7.39
2022-10-12T03:39:27.016Z,7.37
2022-10-12T03:40:27.014Z,7.43
2022-10-12T03:41:27.012Z,7.37
2022-10-12T03:42:27.003Z,7.31
2022-10-12T03:43:27.002Z,7.24
2022-10-12T03:44:27.008Z,7.27
2022-10-12T03:45:26.997Z,7.31
2022-10-12T03:46:26.994Z,7.31
2022-10-12T03:47:26.990Z,7.27
2022-10-12T03:48:26.989Z,7.25
2022-10-12T03:49:26.985Z,7.30
2022-10-12T03:50:26.982Z,7.31
2022-10-12T03:51:26.985Z,7.32
2022-10-12T03:52:26.978Z,7.25
2022-10-12T03:53:26.998Z,7.31
2022-10-12T03:54:26.971Z,7.20
2022-10-12T03:55:26.974Z,7.12
2022-10-12T03:56:26.971Z,7.12
2022-10-12T03:57:26.966Z,7.21
2022-10-12T03:58:26.962Z,7.20
2022-10-12T03:59:26.962Z,7.10
2022-10-12T04:00:26.961Z,7.20
2022-10-12T04:01:26.965Z,7.16
2022-10-12T04:02:26.958Z,7.21
2022-10-12T04:03:26.949Z,7.24
2022-10-12T04:04:26.950Z,7.12
2022-10-12T04:05:26.947Z,7.10
2022-10-12T04:06:26.942Z,7.13
2022-10-12T04:07:26.939Z,7.09
2022-10-12T04:08:26.947Z,7.10
2022-10-12T04:09:26.954Z,7.02
2022-10-12T04:10:26.933Z,7.07
2022-10-12T04:11:26.934Z,7.09
2022-10-12T04:12:26.927Z,6.97
2022-10-12T04:13:26.922Z,7.07
2022-10-12T04:14:26.921Z,7.07
2022-10-12T04:15:26.919Z,7.03
2022-10-12T04:16:30.264Z,7.13
2022-10-12T04:17:26.912Z,7.07
2022-10-12T04:18:26.909Z,7.12
2022-10-12T04:19:26.908Z,7.15
2022-10-12T04:20:26.908Z,7.35
2022-10-12T04:21:26.900Z,7.25
2022-10-12T04:22:26.900Z,7.31
2022-10-12T04:23:26.896Z,7.42
2022-10-12T04:24:26.894Z,7.40
2022-10-12T04:25:30.075Z,7.39
2022-10-12T04:26:26.893Z,7.42
2022-10-12T04:27:26.889Z,7.39
2022-10-12T04:28:26.935Z,7.40
2022-10-12T04:29:26.879Z,7.40
2022-10-12T04:30:26.879Z,7.40
2022-10-12T04:31:26.875Z,7.43
2022-10-12T04:32:26.871Z,7.43
2022-10-12T04:33:26.870Z,7.42
2022-10-12T04:34:26.868Z,7.43
2022-10-12T04:35:26.866Z,7.34
2022-10-12T04:36:26.863Z,7.39
2022-10-12T04:37:26.860Z,7.32
2022-10-12T04:38:26.868Z,7.39
2022-10-12T04:39:26.853Z,7.43
2022-10-12T04:40:26.854Z,7.32
2022-10-12T04:41:26.866Z,7.32
2022-10-12T04:42:26.846Z,7.35
2022-10-12T04:43:26.842Z,7.42
2022-10-12T04:44:31.951Z,7.39
2022-10-12T04:45:26.837Z,7.35
2022-10-12T04:46:26.833Z,7.28
2022-10-12T04:47:26.829Z,7.37
2022-10-12T04:48:26.827Z,7.34
2022-10-12T04:49:26.825Z,7.40
2022-10-12T04:50:29.976Z,7.40
2022-10-12T04:51:26.822Z,7.39
2022-10-12T04:52:26.822Z,7.35
2022-10-12T04:53:26.812Z,7.39
2022-10-12T04:54:26.807Z,7.32
2022-10-12T04:55:26.807Z,7.37
2022-10-12T04:56:26.805Z,7.39
2022-10-12T04:57:26.848Z,7.39
2022-10-12T04:58:26.798Z,7.37
2022-10-12T04:59:26.804Z,7.35
2022-10-12T05:00:26.796Z,7.39
2022-10-12T05:01:26.854Z,7.37
2022-10-12T05:02:26.787Z,7.30
2022-10-12T05:03:26.781Z,7.28
2022-10-12T05:04:26.817Z,7.32
2022-10-12T05:05:26.782Z,7.28
2022-10-12T05:06:26.775Z,7.21
2022-10-12T05:07:26.780Z,7.24
2022-10-12T05:08:26.772Z,7.16
2022-10-12T05:09:26.768Z,7.13
2022-10-12T05:10:26.768Z,7.17
2022-10-12T05:11:26.766Z,7.16
2022-10-12T05:12:26.760Z,7.10
2022-10-12T05:13:26.783Z,7.09
2022-10-12T05:14:26.753Z,7.05
2022-10-12T05:15:26.750Z,7.10
2022-10-12T05:16:26.749Z,6.98
2022-10-12T05:17:26.749Z,6.98
2022-10-12T05:18:26.741Z,7.03
2022-10-12T05:19:26.741Z,6.98
2022-10-12T05:20:26.739Z,7.02
2022-10-12T05:21:26.737Z,7.03
2022-10-12T05:22:26.735Z,6.94
2022-10-12T05:23:26.732Z,6.89
2022-10-12T05:24:26.724Z,6.89
2022-10-12T05:25:26.725Z,6.95
2022-10-12T05:26:26.719Z,6.88
2022-10-12T05:27:26.719Z,6.91
2022-10-12T05:28:26.747Z,6.84
2022-10-12T05:29:26.730Z,6.89
2022-10-12T05:30:26.708Z,6.87
2022-10-12T05:31:26.707Z,6.98
2022-10-12T05:32:26.745Z,7.05
2022-10-12T05:33:26.699Z,6.99
2022-10-12T05:34:26.701Z,6.98
2022-10-12T05:35:26.694Z,7.05
2022-10-12T05:36:26.695Z,7.03
2022-10-12T05:37:26.690Z,6.99
2022-10-12T05:38:26.685Z,6.99
2022-10-12T05:39:26.682Z,6.88
2022-10-12T05:40:26.680Z,6.88
2022-10-12T05:41:26.676Z,6.92
2022-10-12T05:42:26.678Z,6.87
2022-10-12T05:43:26.674Z,6.91
2022-10-12T05:44:26.668Z,6.92
2022-10-12T05:45:26.695Z,6.97
2022-10-12T05:46:26.668Z,6.85
2022-10-12T05:47:26.662Z,6.85
2022-10-12T05:48:26.657Z,6.87
2022-10-12T05:49:26.651Z,6.88
2022-10-12T05:50:26.651Z,6.88
2022-10-12T05:51:28.878Z,6.91
2022-10-12T05:52:26.651Z,6.91
2022-10-12T05:53:26.645Z,6.94
2022-10-12T05:54:26.642Z,6.99
2022-10-12T05:55:26.639Z,7.02
2022-10-12T05:56:26.635Z,7.06
2022-10-12T05:57:26.631Z,7.02
2022-10-12T05:58:26.626Z,7.06
2022-10-12T05:59:26.623Z,7.03
2022-10-12T06:00:26.624Z,7.09
2022-10-12T06:01:26.670Z,7.23
2022-10-12T06:02:26.621Z,7.23
2022-10-12T06:03:27.434Z,7.20
2022-10-12T06:04:26.611Z,7.15
2022-10-12T06:05:26.615Z,7.23
2022-10-12T06:06:26.601Z,7.24
2022-10-12T06:07:26.601Z,7.30
2022-10-12T06:08:26.600Z,7.32
2022-10-12T06:09:26.598Z,7.30
2022-10-12T06:10:29.979Z,7.40
2022-10-12T06:11:26.594Z,7.45
2022-10-12T06:12:26.599Z,7.40
2022-10-12T06:13:26.587Z,7.50
2022-10-12T06:14:26.583Z,7.49
2022-10-12T06:15:26.579Z,7.72
2022-10-12T06:16:26.573Z,7.72
2022-10-12T06:17:26.595Z,7.85
2022-10-12T06:18:26.574Z,7.86
2022-10-12T06:19:26.572Z,8.01
2022-10-12T06:20:26.567Z,8.08
2022-10-12T06:21:34.705Z,8.08
2022-10-12T06:22:26.558Z,8.05
2022-10-12T06:23:26.557Z,8.23
2022-10-12T06:24:26.564Z,8.26
2022-10-12T06:25:26.547Z,8.30
2022-10-12T06:26:26.549Z,8.40
2022-10-12T06:27:26.544Z,8.44
2022-10-12T06:28:26.656Z,8.53
2022-10-12T06:29:26.539Z,8.63
2022-10-12T06:30:26.600Z,8.68
2022-10-12T06:31:26.537Z,8.63
2022-10-12T06:32:26.534Z,8.71
2022-10-12T06:33:26.543Z,8.77
2022-10-12T06:34:26.528Z,8.79
2022-10-12T06:35:26.536Z,8.84
2022-10-12T06:36:26.524Z,8.86
2022-10-12T06:37:48.722Z,8.96
2022-10-12T06:38:26.514Z,8.99
2022-10-12T06:39:26.516Z,9.10
2022-10-12T06:40:26.523Z,9.05
2022-10-12T06:41:26.512Z,9.18
2022-10-12T06:42:26.504Z,9.26
2022-10-12T06:43:26.500Z,9.32
2022-10-12T06:44:26.504Z,9.32
2022-10-12T06:45:26.493Z,9.38
2022-10-12T06:46:26.493Z,9.50
2022-10-12T06:47:26.497Z,9.51
2022-10-12T06:48:26.488Z,9.64
2022-10-12T06:49:26.513Z,9.66
2022-10-12T06:50:26.485Z,9.76
2022-10-12T06:51:26.489Z,9.79
2022-10-12T06:52:26.488Z,9.89
2022-10-12T06:53:26.475Z,10.02
2022-10-12T06:54:26.473Z,10.17
2022-10-12T06:55:26.473Z,10.14
2022-10-12T06:56:26.468Z,10.27
2022-10-12T06:57:26.472Z,10.41
2022-10-12T06:58:26.467Z,10.48
2022-10-12T06:59:26.463Z,10.40
2022-10-12T07:00:26.469Z,10.51
2022-10-12T07:01:26.494Z,10.53
2022-10-12T07:02:26.471Z,10.61
2022-10-12T07:03:26.460Z,10.60
2022-10-12T07:04:26.456Z,10.73
2022-10-12T07:05:26.479Z,10.73
2022-10-12T07:06:26.447Z,10.79
2022-10-12T07:07:26.450Z,10.79
2022-10-12T07:08:26.448Z,10.86
2022-10-12T07:09:26.451Z,11.02
2022-10-12T07:10:26.444Z,11.03
2022-10-12T07:11:26.436Z,11.17
2022-10-12T07:12:26.435Z,11.24
2022-10-12T07:13:26.434Z,11.27
2022-10-12T07:14:26.432Z,11.39
2022-10-12T07:15:26.436Z,11.43
2022-10-12T07:16:26.426Z,11.60
2022-10-12T07:17:26.427Z,11.61
2022-10-12T07:18:26.432Z,11.75
2022-10-12T07:19:26.424Z,11.73
2022-10-12T07:20:26.423Z,11.96
2022-10-12T07:21:26.436Z,11.98
2022-10-12T07:22:26.418Z,12.09
2022-10-12T07:23:26.422Z,12.19
2022-10-12T07:24:26.408Z,12.20
2022-10-12T07:25:26.414Z,12.24
2022-10-12T07:26:26.416Z,12.21
2022-10-12T07:27:26.422Z,12.28
2022-10-12T07:28:26.483Z,12.42
2022-10-12T07:29:26.404Z,12.46
2022-10-12T07:30:26.401Z,12.56
2022-10-12T07:31:26.403Z,12.64
2022-10-12T07:32:26.406Z,12.74
2022-10-12T07:33:26.400Z,12.82
2022-10-12T07:34:26.403Z,12.90
2022-10-12T07:35:26.399Z,12.87
2022-10-12T07:36:41.051Z,13.04
2022-10-12T07:37:26.415Z,13.03
2022-10-12T07:38:26.389Z,13.15
2022-10-12T07:39:26.393Z,13.11
2022-10-12T07:40:26.386Z,13.15
2022-10-12T07:41:26.388Z,13.25
2022-10-12T07:42:26.381Z,13.30
2022-10-12T07:43:26.385Z,13.38
2022-10-12T07:44:26.393Z,13.41
2022-10-12T07:45:26.388Z,13.49
2022-10-12T07:46:26.379Z,13.51
2022-10-12T07:47:26.382Z,13.73
2022-10-12T07:48:26.386Z,13.64
2022-10-12T07:49:26.384Z,13.79
2022-10-12T07:50:26.385Z,13.99
2022-10-12T07:51:26.375Z,14.00
2022-10-12T07:52:26.375Z,14.06
2022-10-12T07:53:26.397Z,14.18
2022-10-12T07:54:29.368Z,14.15
2022-10-12T07:55:26.372Z,14.21
2022-10-12T07:56:26.376Z,14.33
2022-10-12T07:57:26.371Z,14.40
2022-10-12T07:58:26.367Z,14.52
2022-10-12T07:59:26.367Z,14.62
2022-10-12T08:00:26.366Z,14.78
2022-10-12T08:01:26.436Z,14.84
2022-10-12T08:02:26.361Z,14.88
2022-10-12T08:03:26.370Z,15.02
2022-10-12T08:04:26.365Z,15.10
2022-10-12T08:05:26.366Z,15.13
2022-10-12T08:06:26.371Z,15.31
2022-10-12T08:07:26.363Z,15.47
2022-10-12T08:08:26.365Z,15.65
2022-10-12T08:09:26.384Z,15.86
2022-10-12T08:10:26.356Z,15.93
2022-10-12T08:11:26.365Z,16.20
2022-10-12T08:12:26.372Z,16.20
2022-10-12T08:13:26.357Z,16.34
2022-10-12T08:14:26.361Z,16.63
2022-10-12T08:15:26.364Z,16.64
2022-10-12T08:16:26.360Z,16.81
2022-10-12T08:17:26.362Z,17.03
2022-10-12T08:18:26.358Z,17.18
2022-10-12T08:19:26.361Z,17.38
2022-10-12T08:20:26.357Z,17.49
2022-10-12T08:21:26.359Z,17.71
2022-10-12T08:22:26.357Z,18.00
2022-10-12T08:23:26.362Z,18.33
2022-10-12T08:24:26.360Z,18.45
2022-10-12T08:25:26.377Z,18.70
2022-10-12T08:26:26.359Z,18.99
2022-10-12T08:27:26.356Z,19.33
2022-10-12T08:28:26.387Z,19.51
2022-10-12T08:29:26.355Z,19.83
2022-10-12T08:30:26.356Z,20.03
2022-10-12T08:31:26.362Z,20.24
2022-10-12T08:32:26.360Z,20.69
2022-10-12T08:33:26.363Z,20.82
2022-10-12T08:34:26.362Z,21.10
2022-10-12T08:35:26.361Z,21.25
2022-10-12T08:36:26.362Z,21.64
2022-10-12T08:37:26.363Z,21.75
2022-10-12T08:38:26.364Z,21.91
2022-10-12T08:39:26.364Z,21.98
2022-10-12T08:40:26.366Z,22.12
2022-10-12T08:41:26.385Z,22.09
2022-10-12T08:42:26.364Z,21.90
2022-10-12T08:43:26.368Z,21.75
2022-10-12T08:44:26.367Z,21.75
2022-10-12T08:45:30.275Z,21.88
2022-10-12T08:46:26.366Z,22.07
2022-10-12T08:47:26.373Z,21.99
2022-10-12T08:48:26.375Z,22.00
2022-10-12T08:49:26.374Z,22.00
2022-10-12T08:50:26.370Z,21.96
2022-10-12T08:51:26.380Z,22.03
2022-10-12T08:52:26.378Z,22.17
2022-10-12T08:53:26.378Z,22.21
2022-10-12T08:54:26.376Z,22.52
2022-10-12T08:55:26.381Z,22.72
2022-10-12T08:56:26.384Z,22.92
2022-10-12T08:57:26.406Z,23.02
2022-10-12T08:58:26.392Z,23.17
2022-10-12T08:59:26.387Z,23.33
2022-10-12T09:00:26.449Z,23.23
2022-10-12T09:01:26.453Z,23.43
2022-10-12T09:02:26.395Z,23.54
2022-10-12T09:03:26.407Z,23.83
2022-10-12T09:04:26.402Z,24.06
2022-10-12T09:05:26.406Z,24.20
2022-10-12T09:06:26.410Z,24.34
2022-10-12T09:07:26.421Z,24.46
2022-10-12T09:08:26.419Z,24.57
2022-10-12T09:09:26.420Z,24.60
2022-10-12T09:10:26.427Z,24.55
2022-10-12T09:11:26.428Z,24.61
2022-10-12T09:12:26.437Z,24.87
2022-10-12T09:13:26.463Z,24.98
2022-10-12T09:14:26.446Z,25.03
2022-10-12T09:15:26.458Z,25.13
2022-10-12T09:16:26.458Z,24.98
2022-10-12T09:17:26.471Z,24.49
2022-10-12T09:18:26.472Z,24.50
2022-10-12T09:19:26.476Z,24.27
2022-10-12T09:20:26.482Z,24.49
2022-10-12T09:21:26.488Z,24.98
2022-10-12T09:22:26.493Z,25.20
2022-10-12T09:23:26.500Z,25.51
2022-10-12T09:24:26.503Z,25.87
2022-10-12T09:25:26.515Z,26.10
2022-10-12T09:26:26.526Z,26.63
2022-10-12T09:27:26.532Z,26.81
2022-10-12T09:28:26.607Z,27.44
2022-10-12T09:29:26.575Z,27.84
2022-10-12T09:30:26.554Z,28.27
2022-10-12T09:31:26.562Z,28.67
2022-10-12T09:32:26.574Z,29.05
2022-10-12T09:33:26.588Z,29.48
2022-10-12T09:34:26.593Z,29.63
2022-10-12T09:35:26.599Z,29.87
2022-10-12T09:36:26.616Z,30.23
2022-10-12T09:37:26.626Z,30.29
2022-10-12T09:38:26.635Z,30.35
2022-10-12T09:39:29.079Z,30.54
2022-10-12T09:40:26.655Z,30.69
2022-10-12T09:41:26.662Z,30.77
2022-10-12T09:42:26.677Z,30.83
2022-10-12T09:43:26.684Z,30.86
2022-10-12T09:44:26.694Z,30.98
2022-10-12T09:45:26.734Z,31.23
2022-10-12T09:46:26.722Z,31.16
2022-10-12T09:47:26.726Z,31.29
2022-10-12T09:48:26.749Z,31.35
2022-10-12T09:49:26.779Z,31.32
2022-10-12T09:50:26.773Z,31.10
2022-10-12T09:51:26.783Z,31.19
2022-10-12T09:52:26.797Z,31.35
2022-10-12T09:53:26.809Z,31.61
2022-10-12T09:54:26.824Z,31.35
2022-10-12T09:56:26.854Z,31.35
2022-10-12T09:57:26.865Z,31.46
2022-10-12T09:58:26.878Z,31.65
2022-10-12T09:59:26.893Z,32.14
2022-10-12T10:00:26.906Z,32.29
2022-10-12T10:01:27.094Z,32.56
2022-10-12T10:02:26.934Z,32.15
2022-10-12T10:03:30.644Z,32.14
2022-10-12T10:04:26.962Z,32.18
2022-10-12T10:05:26.979Z,32.19
2022-10-12T10:06:26.991Z,32.18
2022-10-12T10:07:27.010Z,32.22
2022-10-12T10:08:27.021Z,32.32
2022-10-12T10:09:27.035Z,32.29
2022-10-12T10:10:30.641Z,32.13
2022-10-12T10:11:27.068Z,32.33
2022-10-12T10:12:27.098Z,32.30
2022-10-12T10:13:27.101Z,32.30
2022-10-12T10:14:27.122Z,32.40
2022-10-12T10:15:27.129Z,32.18
2022-10-12T10:16:27.151Z,32.21
2022-10-12T10:17:27.183Z,32.38
2022-10-12T10:18:27.176Z,32.28
2022-10-12T10:19:27.200Z,32.03
2022-10-12T10:20:27.215Z,32.38
2022-10-12T10:21:27.238Z,32.33
2022-10-12T10:22:27.240Z,32.70
2022-10-12T10:23:27.264Z,32.85
2022-10-12T10:24:27.281Z,33.03
2022-10-12T10:25:27.290Z,33.16
2022-10-12T10:26:27.309Z,32.89
2022-10-12T10:27:27.324Z,32.41
2022-10-12T10:28:27.386Z,32.72
2022-10-12T10:29:27.362Z,32.75
2022-10-12T10:30:33.777Z,32.51
2022-10-12T10:31:27.395Z,32.84
2022-10-12T10:32:27.411Z,32.92
2022-10-12T10:33:27.451Z,33.15
2022-10-12T10:34:27.455Z,33.23
2022-10-12T10:35:27.463Z,33.04
2022-10-12T10:36:27.480Z,32.74
2022-10-12T10:37:27.496Z,32.35
2022-10-12T10:38:27.515Z,31.93
2022-10-12T10:39:27.531Z,31.80
2022-10-12T10:40:27.551Z,32.10
2022-10-12T10:41:27.574Z,32.32
2022-10-12T10:42:27.588Z,32.33
2022-10-12T10:43:27.607Z,32.45
2022-10-12T10:44:27.674Z,32.56
2022-10-12T10:45:27.646Z,32.85
2022-10-12T10:46:27.661Z,33.31
2022-10-12T10:47:27.678Z,33.49
2022-10-12T10:48:27.701Z,33.53
2022-10-12T10:49:27.803Z,33.09
2022-10-12T10:50:27.735Z,33.26
2022-10-12T10:51:27.757Z,33.29
2022-10-12T10:52:27.877Z,33.47
2022-10-12T10:53:27.808Z,33.39
2022-10-12T10:54:27.810Z,33.59
2022-10-12T10:55:27.831Z,33.68
2022-10-12T10:56:27.853Z,33.88
2022-10-12T10:57:27.871Z,34.13
2022-10-12T10:58:27.888Z,34.65
2022-10-12T10:59:27.915Z,34.84
2022-10-12T11:00:43.774Z,34.49
2022-10-12T11:01:27.990Z,34.47
2022-10-12T11:02:27.964Z,34.35
2022-10-12T11:03:27.993Z,34.17
2022-10-12T11:04:28.011Z,33.93
2022-10-12T11:05:28.046Z,33.81
2022-10-12T11:06:28.048Z,33.59
2022-10-12T11:07:28.064Z,33.54
2022-10-12T11:08:28.098Z,33.23
2022-10-12T11:09:28.110Z,32.93
2022-10-12T11:10:28.131Z,33.14
2022-10-12T11:11:28.154Z,33.56
2022-10-12T11:12:31.220Z,33.18
2022-10-12T11:13:28.188Z,32.70
2022-10-12T11:14:28.204Z,32.87
2022-10-12T11:15:28.247Z,32.77
2022-10-12T11:16:28.253Z,33.32
2022-10-12T11:17:28.272Z,33.49
2022-10-12T11:18:28.288Z,33.97
2022-10-12T11:19:28.313Z,33.45
2022-10-12T11:20:28.427Z,33.04
2022-10-12T11:21:28.370Z,33.32
2022-10-12T11:22:28.370Z,32.88
2022-10-12T11:23:28.391Z,32.51
2022-10-12T11:24:28.415Z,32.37
2022-10-12T11:25:28.431Z,32.63
2022-10-12T11:26:28.453Z,32.81
2022-10-12T11:27:28.472Z,32.55
2022-10-12T11:28:28.545Z,32.07
2022-10-12T11:29:28.513Z,32.50
2022-10-12T11:30:28.540Z,32.88
2022-10-12T11:31:28.554Z,33.21
2022-10-12T11:32:28.580Z,33.53
2022-10-12T11:33:28.597Z,33.72
2022-10-12T11:34:28.619Z,33.54
2022-10-12T11:35:28.634Z,33.78
2022-10-12T11:36:28.662Z,34.10
2022-10-12T11:37:28.691Z,34.37
2022-10-12T11:38:28.700Z,34.84
2022-10-12T11:39:28.718Z,35.04
2022-10-12T11:40:55.471Z,35.15
2022-10-12T11:41:35.502Z,35.14
2022-10-12T11:42:28.777Z,34.81
2022-10-12T11:43:28.805Z,34.73
2022-10-12T11:44:30.569Z,34.64
2022-10-12T11:45:28.846Z,34.30
2022-10-12T11:46:28.861Z,34.62
2022-10-12T11:47:28.881Z,34.59
2022-10-12T11:48:28.907Z,34.40
2022-10-12T11:49:28.922Z,34.47
2022-10-12T11:50:28.957Z,34.42
2022-10-12T11:51:28.964Z,34.35
2022-10-12T11:52:29.423Z,34.43
2022-10-12T11:53:29.031Z,34.70
2022-10-12T11:54:29.033Z,34.87
2022-10-12T11:55:29.058Z,35.03
2022-10-12T11:56:29.071Z,35.10
2022-10-12T11:57:29.086Z,35.40
2022-10-12T11:58:48.582Z,35.55
2022-10-12T11:59:29.123Z,35.74
2022-10-12T12:00:29.146Z,35.85
2022-10-12T12:01:29.162Z,35.56
2022-10-12T12:02:29.186Z,35.66
2022-10-12T12:03:29.252Z,35.66
2022-10-12T12:04:44.780Z,35.07
2022-10-12T12:05:29.233Z,34.96
2022-10-12T12:06:29.259Z,34.30
2022-10-12T12:07:29.268Z,34.05
2022-10-12T12:08:29.289Z,34.17
2022-10-12T12:09:29.332Z,33.84
2022-10-12T12:10:29.317Z,33.49
2022-10-12T12:11:29.333Z,33.49
2022-10-12T12:12:29.353Z,33.18
2022-10-12T12:13:29.366Z,32.79
2022-10-12T12:14:29.381Z,32.51
2022-10-12T12:15:29.404Z,31.84
2022-10-12T12:16:29.415Z,31.31
2022-10-12T12:17:32.001Z,30.72
2022-10-12T12:18:29.443Z,29.71
2022-10-12T12:19:29.455Z,28.98
2022-10-12T12:20:29.476Z,28.19
2022-10-12T12:21:29.484Z,27.82
2022-10-12T12:22:29.497Z,27.24
2022-10-12T12:23:29.510Z,26.63
2022-10-12T12:24:29.521Z,26.32
2022-10-12T12:25:29.554Z,26.02
2022-10-12T12:26:29.547Z,25.75
2022-10-12T12:27:29.555Z,25.77
2022-10-12T12:28:29.617Z,25.23
2022-10-12T12:29:29.585Z,25.13
2022-10-12T12:30:29.593Z,25.10
2022-10-12T12:31:29.606Z,25.00
2022-10-12T12:32:29.617Z,25.00
2022-10-12T12:33:29.636Z,24.88
2022-10-12T12:34:29.637Z,24.84
2022-10-12T12:35:29.655Z,24.67
2022-10-12T12:36:29.661Z,24.49
2022-10-12T12:37:29.669Z,24.43
2022-10-12T12:38:29.680Z,24.10
2022-10-12T12:39:29.685Z,24.09
2022-10-12T12:40:29.701Z,23.80
2022-10-12T12:41:29.780Z,23.54
2022-10-12T12:42:29.711Z,23.32
2022-10-12T12:43:29.722Z,23.28
2022-10-12T12:44:29.729Z,23.25
2022-10-12T12:45:29.731Z,23.35
2022-10-12T12:46:29.744Z,23.47
2022-10-12T12:47:46.353Z,23.54
2022-10-12T12:48:29.863Z,23.58
2022-10-12T12:49:29.782Z,23.57
2022-10-12T12:50:29.775Z,23.70
2022-10-12T12:51:29.780Z,23.84
2022-10-12T12:52:29.793Z,23.84
2022-10-12T12:53:29.794Z,23.79
2022-10-12T12:54:29.806Z,23.32
2022-10-12T12:55:29.811Z,23.17
2022-10-12T12:56:29.817Z,23.25
2022-10-12T12:57:29.837Z,23.10
2022-10-12T12:58:29.827Z,23.05
2022-10-12T12:59:29.829Z,23.12
2022-10-12T13:00:29.962Z,22.85
2022-10-12T13:01:29.900Z,22.75
2022-10-12T13:02:29.859Z,22.83
2022-10-12T13:03:29.854Z,22.79
2022-10-12T13:04:29.873Z,22.68
2022-10-12T13:05:29.866Z,22.75
2022-10-12T13:06:29.876Z,22.77
2022-10-12T13:07:30.068Z,22.88